Allensville, PA

9:24 AM EST on January 25, 2015 (GMT -0500)
Farm view | Change Station
CLOSE
Current Station
Personal Weather Station
Location: Allensville, PA
Elevation: 938 ft
Nearby Weather Stations
Active Advisory: Winter Weather Advisory

Elev 938 ft 40.53 °N, 77.82 °W | Updated 11 minutes ago

Overcast
Overcast
36.5 °F
Feels Like 29 °F
N
10.4
Wind Variable Wind from SW

Today
High -- | Low -- °F
--% Chance of Precip.
Yesterday
High -- | Low -- °F
Precip. -- in
7:26 AM 5:19 PM
Waxing Crescent, 32% visible
Pressure 29.74 in
Visibility 6.0 miles
Clouds Mostly Cloudy 2200 ft
Overcast 5500 ft
Windchill 29 °F
Dew Point 31 °F
Humidity 79%
Rainfall 0.00 in
Snow Depth Not available.
UV 0 out of 12
Pollen .10 out of 12
Air Quality Not available.
Flu Activity Not available.
METAR KUNV 251353Z 27009KT 6SM HZ BKN022 OVC055 01/M01 A2974

More Conditions Fewer Conditions

Pressure 29.74 in
Visibility 6.0 miles
Clouds Mostly Cloudy 2200 ft
Overcast 5500 ft
Windchill 29 °F
Dew Point 31 °F
Humidity 79%
Rainfall 0.00 in
Snow Depth Not available.
UV 0 out of 12
Pollen .10 out of 12
Air Quality Not available.
Flu Activity Not available.
METAR KUNV 251353Z 27009KT 6SM HZ BKN022 OVC055 01/M01 A2974

More Conditions Fewer Conditions

10-Day Weather Forecast

Almanac

Astronomy

Jan. 25, 2015 Rise Set
Actual Time
Civil Twilight
Nautical Twilight
Astronomical Twilight
Moon
Length of Visible Light
Length of Day
Tomorrow will be .
, % of the Moon is Illuminated

Today's Extremes

State Highs State Lows

Community

WunderPhotos

Upload Photos

1,789,894 photos uploaded!

WunderBlogs® & News

Nearby

Air Quality

  Air Quality AQ Index Pollutant
Not available.

Snow Depth

Station Depth Elevation

Earthquake Activity

City Distance Mag. Time & Date
Minimum magnitude displayed is 2.5.

Coastal Water Temperatures

Place Temperature

Nearby Weather Stations